sensor_id;sensor_type;location;lat;lon;timestamp;temperature;humidity
13694;DHT22;6919;52.344;14.518;2023-04-19T00:02:18;7.40;99.90
13694;DHT22;6919;52.344;14.518;2023-04-19T00:04:47;7.60;1.00
13694;DHT22;6919;52.344;14.518;2023-04-19T00:07:16;7.30;1.00
13694;DHT22;6919;52.344;14.518;2023-04-19T00:09:46;7.40;1.00
13694;DHT22;6919;52.344;14.518;2023-04-19T00:12:14;7.30;1.00
13694;DHT22;6919;52.344;14.518;2023-04-19T00:14:42;7.30;1.00
13694;DHT22;6919;52.344;14.518;2023-04-19T00:17:11;7.40;32.10
13694;DHT22;6919;52.344;14.518;2023-04-19T00:19:40;7.70;1.00
13694;DHT22;6919;52.344;14.518;2023-04-19T00:22:10;7.40;1.00
13694;DHT22;6919;52.344;14.518;2023-04-19T00:24:38;7.30;99.90
13694;DHT22;6919;52.344;14.518;2023-04-19T00:27:07;7.20;1.00
13694;DHT22;6919;52.344;14.518;2023-04-19T00:29:35;7.20;1.00
13694;DHT22;6919;52.344;14.518;2023-04-19T00:32:04;7.10;1.00
13694;DHT22;6919;52.344;14.518;2023-04-19T00:34:32;7.10;99.90
13694;DHT22;6919;52.344;14.518;2023-04-19T00:37:02;7.00;99.90
13694;DHT22;6919;52.344;14.518;2023-04-19T00:39:31;7.00;99.90
13694;DHT22;6919;52.344;14.518;2023-04-19T00:42:00;7.00;99.90
13694;DHT22;6919;52.344;14.518;2023-04-19T00:44:28;6.90;1.00
13694;DHT22;6919;52.344;14.518;2023-04-19T00:46:57;6.90;99.90
13694;DHT22;6919;52.344;14.518;2023-04-19T00:49:27;6.90;99.90
13694;DHT22;6919;52.344;14.518;2023-04-19T00:51:56;6.80;1.00
13694;DHT22;6919;52.344;14.518;2023-04-19T00:54:26;6.80;99.90
13694;DHT22;6919;52.344;14.518;2023-04-19T00:56:55;6.60;1.00
13694;DHT22;6919;52.344;14.518;2023-04-19T00:59:24;6.60;1.00
13694;DHT22;6919;52.344;14.518;2023-04-19T01:01:53;6.40;99.90
13694;DHT22;6919;52.344;14.518;2023-04-19T01:04:22;6.40;1.00
13694;DHT22;6919;52.344;14.518;2023-04-19T01:06:51;6.30;99.90
13694;DHT22;6919;52.344;14.518;2023-04-19T01:09:21;6.30;1.00
13694;DHT22;6919;52.344;14.518;2023-04-19T01:11:51;6.30;1.00
13694;DHT22;6919;52.344;14.518;2023-04-19T01:14:19;6.20;99.90
13694;DHT22;6919;52.344;14.518;2023-04-19T01:16:48;6.40;1.00
13694;DHT22;6919;52.344;14.518;2023-04-19T01:19:17;6.40;1.00
13694;DHT22;6919;52.344;14.518;2023-04-19T01:21:45;6.20;1.00
13694;DHT22;6919;52.344;14.518;2023-04-19T01:24:16;6.20;1.00
13694;DHT22;6919;52.344;14.518;2023-04-19T01:26:44;6.20;99.90
13694;DHT22;6919;52.344;14.518;2023-04-19T01:29:12;6.10;99.90
13694;DHT22;6919;52.344;14.518;2023-04-19T01:31:41;6.00;1.00
13694;DHT22;6919;52.344;14.518;2023-04-19T01:34:14;6.00;99.90
13694;DHT22;6919;52.344;14.518;2023-04-19T01:36:43;5.70;1.00
13694;DHT22;6919;52.344;14.518;2023-04-19T01:39:11;5.70;99.90
13694;DHT22;6919;52.344;14.518;2023-04-19T01:41:41;5.60;1.00
13694;DHT22;6919;52.344;14.518;2023-04-19T01:44:10;5.70;1.00
13694;DHT22;6919;52.344;14.518;2023-04-19T01:46:39;5.40;1.00
13694;DHT22;6919;52.344;14.518;2023-04-19T01:49:08;5.30;99.90
13694;DHT22;6919;52.344;14.518;2023-04-19T01:51:37;5.30;1.00
13694;DHT22;6919;52.344;14.518;2023-04-19T01:54:06;5.20;1.00
13694;DHT22;6919;52.344;14.518;2023-04-19T01:56:34;5.10;99.90
13694;DHT22;6919;52.344;14.518;2023-04-19T01:59:04;5.00;1.00
13694;DHT22;6919;52.344;14.518;2023-04-19T02:01:33;5.00;1.00
13694;DHT22;6919;52.344;14.518;2023-04-19T02:04:01;4.90;99.90
13694;DHT22;6919;52.344;14.518;2023-04-19T02:06:30;4.80;99.90
13694;DHT22;6919;52.344;14.518;2023-04-19T02:08:59;4.70;1.00
13694;DHT22;6919;52.344;14.518;2023-04-19T02:11:27;4.70;1.00
13694;DHT22;6919;52.344;14.518;2023-04-19T02:13:56;4.60;99.90
13694;DHT22;6919;52.344;14.518;2023-04-19T02:16:26;4.60;1.00
13694;DHT22;6919;52.344;14.518;2023-04-19T02:18:55;4.50;99.90
13694;DHT22;6919;52.344;14.518;2023-04-19T02:21:24;4.50;1.00
13694;DHT22;6919;52.344;14.518;2023-04-19T02:23:53;4.50;1.00
13694;DHT22;6919;52.344;14.518;2023-04-19T02:26:21;4.50;6.90
13694;DHT22;6919;52.344;14.518;2023-04-19T02:28:51;4.40;1.00
13694;DHT22;6919;52.344;14.518;2023-04-19T02:31:27;4.30;99.90
13694;DHT22;6919;52.344;14.518;2023-04-19T02:46:55;4.20;1.00
13694;DHT22;6919;52.344;14.518;2023-04-19T02:49:24;4.10;99.90
13694;DHT22;6919;52.344;14.518;2023-04-19T02:51:52;4.00;99.90
13694;DHT22;6919;52.344;14.518;2023-04-19T02:54:21;4.10;1.00
13694;DHT22;6919;52.344;14.518;2023-04-19T02:56:49;4.00;1.00
13694;DHT22;6919;52.344;14.518;2023-04-19T02:59:17;4.50;99.90
13694;DHT22;6919;52.344;14.518;2023-04-19T03:01:46;4.10;1.00
13694;DHT22;6919;52.344;14.518;2023-04-19T03:04:16;3.90;3.00
13694;DHT22;6919;52.344;14.518;2023-04-19T03:06:44;4.00;1.00
13694;DHT22;6919;52.344;14.518;2023-04-19T03:09:13;3.80;1.00
13694;DHT22;6919;52.344;14.518;2023-04-19T03:11:41;3.80;99.90
13694;DHT22;6919;52.344;14.518;2023-04-19T03:14:09;3.80;1.00
13694;DHT22;6919;52.344;14.518;2023-04-19T03:16:38;3.70;1.00
13694;DHT22;6919;52.344;14.518;2023-04-19T03:19:07;3.70;1.00
13694;DHT22;6919;52.344;14.518;2023-04-19T03:21:37;3.70;1.00
13694;DHT22;6919;52.344;14.518;2023-04-19T03:24:06;3.70;99.90
13694;DHT22;6919;52.344;14.518;2023-04-19T03:26:35;3.70;99.90
13694;DHT22;6919;52.344;14.518;2023-04-19T03:29:03;3.80;76.70
13694;DHT22;6919;52.344;14.518;2023-04-19T03:31:31;3.60;99.90
13694;DHT22;6919;52.344;14.518;2023-04-19T03:34:00;3.70;99.90
13694;DHT22;6919;52.344;14.518;2023-04-19T03:36:28;3.70;1.00
13694;DHT22;6919;52.344;14.518;2023-04-19T03:38:58;3.60;1.00
13694;DHT22;6919;52.344;14.518;2023-04-19T03:41:26;3.90;99.90
13694;DHT22;6919;52.344;14.518;2023-04-19T03:43:55;3.60;1.00
13694;DHT22;6919;52.344;14.518;2023-04-19T03:46:24;3.50;60.20
13694;DHT22;6919;52.344;14.518;2023-04-19T03:48:53;3.50;99.90
13694;DHT22;6919;52.344;14.518;2023-04-19T03:51:21;3.60;99.90
13694;DHT22;6919;52.344;14.518;2023-04-19T03:53:49;3.70;99.90
13694;DHT22;6919;52.344;14.518;2023-04-19T03:56:19;3.50;1.00
13694;DHT22;6919;52.344;14.518;2023-04-19T03:58:50;3.70;1.00
13694;DHT22;6919;52.344;14.518;2023-04-19T04:01:18;3.60;1.00
13694;DHT22;6919;52.344;14.518;2023-04-19T04:03:47;3.60;1.00
13694;DHT22;6919;52.344;14.518;2023-04-19T04:06:16;3.50;1.00
13694;DHT22;6919;52.344;14.518;2023-04-19T04:08:44;3.50;1.00
13694;DHT22;6919;52.344;14.518;2023-04-19T04:11:13;3.80;1.00
13694;DHT22;6919;52.344;14.518;2023-04-19T04:13:43;3.50;99.90
13694;DHT22;6919;52.344;14.518;2023-04-19T04:16:12;3.50;1.00
13694;DHT22;6919;52.344;14.518;2023-04-19T04:18:40;3.50;1.00
13694;DHT22;6919;52.344;14.518;2023-04-19T04:21:09;3.50;1.00
13694;DHT22;6919;52.344;14.518;2023-04-19T04:23:38;4.50;1.00
13694;DHT22;6919;52.344;14.518;2023-04-19T04:26:07;3.40;1.00
13694;DHT22;6919;52.344;14.518;2023-04-19T04:28:36;3.50;1.00
13694;DHT22;6919;52.344;14.518;2023-04-19T04:31:07;3.50;1.00
13694;DHT22;6919;52.344;14.518;2023-04-19T04:33:35;3.60;1.00
13694;DHT22;6919;52.344;14.518;2023-04-19T04:36:05;3.60;1.00
13694;DHT22;6919;52.344;14.518;2023-04-19T04:38:35;3.60;1.00
13694;DHT22;6919;52.344;14.518;2023-04-19T04:41:04;3.60;1.00
13694;DHT22;6919;52.344;14.518;2023-04-19T04:43:33;3.60;1.00
13694;DHT22;6919;52.344;14.518;2023-04-19T04:46:01;3.70;1.00
13694;DHT22;6919;52.344;14.518;2023-04-19T04:48:31;3.90;1.00
13694;DHT22;6919;52.344;14.518;2023-04-19T04:51:00;3.90;1.00
13694;DHT22;6919;52.344;14.518;2023-04-19T04:53:28;4.00;1.00
13694;DHT22;6919;52.344;14.518;2023-04-19T04:55:57;4.10;1.00
13694;DHT22;6919;52.344;14.518;2023-04-19T04:58:25;4.10;1.00
13694;DHT22;6919;52.344;14.518;2023-04-19T05:00:53;4.20;1.00
13694;DHT22;6919;52.344;14.518;2023-04-19T05:03:22;4.20;1.00
13694;DHT22;6919;52.344;14.518;2023-04-19T05:05:52;4.20;1.00
13694;DHT22;6919;52.344;14.518;2023-04-19T05:08:20;4.60;1.00
13694;DHT22;6919;52.344;14.518;2023-04-19T05:10:49;4.50;1.00
13694;DHT22;6919;52.344;14.518;2023-04-19T05:13:17;4.70;1.00
13694;DHT22;6919;52.344;14.518;2023-04-19T05:15:46;5.00;1.00
13694;DHT22;6919;52.344;14.518;2023-04-19T05:18:14;4.90;99.90
13694;DHT22;6919;52.344;14.518;2023-04-19T05:20:42;5.00;99.90
13694;DHT22;6919;52.344;14.518;2023-04-19T05:23:13;5.10;99.90
13694;DHT22;6919;52.344;14.518;2023-04-19T05:25:42;5.10;99.90
13694;DHT22;6919;52.344;14.518;2023-04-19T05:28:11;5.20;99.90
13694;DHT22;6919;52.344;14.518;2023-04-19T05:30:39;5.20;99.90
13694;DHT22;6919;52.344;14.518;2023-04-19T05:33:08;5.10;21.00
13694;DHT22;6919;52.344;14.518;2023-04-19T05:35:36;5.20;99.90
13694;DHT22;6919;52.344;14.518;2023-04-19T05:38:04;5.40;99.90
13694;DHT22;6919;52.344;14.518;2023-04-19T05:40:34;5.40;64.00
13694;DHT22;6919;52.344;14.518;2023-04-19T05:43:03;5.30;15.60
13694;DHT22;6919;52.344;14.518;2023-04-19T05:45:31;5.40;48.10
13694;DHT22;6919;52.344;14.518;2023-04-19T05:47:59;5.50;1.00
13694;DHT22;6919;52.344;14.518;2023-04-19T05:50:28;5.50;1.00
13694;DHT22;6919;52.344;14.518;2023-04-19T05:52:57;5.60;1.00
13694;DHT22;6919;52.344;14.518;2023-04-19T05:55:25;5.60;1.00
13694;DHT22;6919;52.344;14.518;2023-04-19T05:57:55;5.60;1.00
13694;DHT22;6919;52.344;14.518;2023-04-19T06:00:24;5.70;1.00
13694;DHT22;6919;52.344;14.518;2023-04-19T06:02:53;5.90;99.90
13694;DHT22;6919;52.344;14.518;2023-04-19T06:05:22;5.90;99.90
13694;DHT22;6919;52.344;14.518;2023-04-19T06:07:51;5.70;1.00
13694;DHT22;6919;52.344;14.518;2023-04-19T06:10:28;5.90;17.30
13694;DHT22;6919;52.344;14.518;2023-04-19T06:13:18;5.90;1.00
13694;DHT22;6919;52.344;14.518;2023-04-19T06:15:47;6.10;1.00
13694;DHT22;6919;52.344;14.518;2023-04-19T06:18:16;6.40;99.90
13694;DHT22;6919;52.344;14.518;2023-04-19T06:20:46;6.40;1.00
13694;DHT22;6919;52.344;14.518;2023-04-19T06:23:14;6.40;1.00
13694;DHT22;6919;52.344;14.518;2023-04-19T06:25:44;6.40;99.90
13694;DHT22;6919;52.344;14.518;2023-04-19T06:28:14;6.40;99.90
13694;DHT22;6919;52.344;14.518;2023-04-19T06:30:44;6.40;1.00
13694;DHT22;6919;52.344;14.518;2023-04-19T06:33:13;6.50;1.00
13694;DHT22;6919;52.344;14.518;2023-04-19T06:35:41;6.60;1.00
13694;DHT22;6919;52.344;14.518;2023-04-19T06:38:10;6.80;99.90
13694;DHT22;6919;52.344;14.518;2023-04-19T06:40:38;7.10;93.90
13694;DHT22;6919;52.344;14.518;2023-04-19T06:43:06;7.30;1.00
13694;DHT22;6919;52.344;14.518;2023-04-19T06:45:35;7.60;99.90
13694;DHT22;6919;52.344;14.518;2023-04-19T06:48:05;7.40;99.90
13694;DHT22;6919;52.344;14.518;2023-04-19T06:50:33;7.40;1.00
13694;DHT22;6919;52.344;14.518;2023-04-19T06:53:01;7.70;1.00
13694;DHT22;6919;52.344;14.518;2023-04-19T06:55:30;7.50;52.90
13694;DHT22;6919;52.344;14.518;2023-04-19T06:57:59;7.60;99.90
13694;DHT22;6919;52.344;14.518;2023-04-19T07:00:27;7.40;1.00
13694;DHT22;6919;52.344;14.518;2023-04-19T07:02:56;7.30;99.90
13694;DHT22;6919;52.344;14.518;2023-04-19T07:05:27;7.40;99.90
13694;DHT22;6919;52.344;14.518;2023-04-19T07:07:56;7.40;99.90
13694;DHT22;6919;52.344;14.518;2023-04-19T07:10:25;7.40;99.90
13694;DHT22;6919;52.344;14.518;2023-04-19T07:12:53;7.60;1.00
13694;DHT22;6919;52.344;14.518;2023-04-19T07:15:22;7.80;51.40
13694;DHT22;6919;52.344;14.518;2023-04-19T07:17:50;7.80;1.00
13694;DHT22;6919;52.344;14.518;2023-04-19T07:20:19;8.00;1.00
13694;DHT22;6919;52.344;14.518;2023-04-19T07:22:49;8.00;1.00
13694;DHT22;6919;52.344;14.518;2023-04-19T07:25:18;8.00;1.00
13694;DHT22;6919;52.344;14.518;2023-04-19T07:27:46;8.10;99.90
13694;DHT22;6919;52.344;14.518;2023-04-19T07:30:14;8.20;99.90
13694;DHT22;6919;52.344;14.518;2023-04-19T07:32:43;8.20;99.90
13694;DHT22;6919;52.344;14.518;2023-04-19T07:35:12;8.30;99.90
13694;DHT22;6919;52.344;14.518;2023-04-19T07:37:41;8.60;1.00
13694;DHT22;6919;52.344;14.518;2023-04-19T07:40:11;8.50;99.90
13694;DHT22;6919;52.344;14.518;2023-04-19T07:42:41;8.60;99.90
13694;DHT22;6919;52.344;14.518;2023-04-19T07:45:10;8.90;99.90
13694;DHT22;6919;52.344;14.518;2023-04-19T07:47:40;9.20;99.90
13694;DHT22;6919;52.344;14.518;2023-04-19T07:50:09;9.20;1.00
13694;DHT22;6919;52.344;14.518;2023-04-19T07:52:38;9.20;1.00
13694;DHT22;6919;52.344;14.518;2023-04-19T07:55:11;9.20;1.00
13694;DHT22;6919;52.344;14.518;2023-04-19T07:57:39;9.40;1.00
13694;DHT22;6919;52.344;14.518;2023-04-19T08:00:12;9.70;1.00
13694;DHT22;6919;52.344;14.518;2023-04-19T08:02:42;9.80;1.00
13694;DHT22;6919;52.344;14.518;2023-04-19T08:05:12;9.70;1.00
13694;DHT22;6919;52.344;14.518;2023-04-19T08:07:42;9.40;1.00
13694;DHT22;6919;52.344;14.518;2023-04-19T08:10:13;9.50;1.00
13694;DHT22;6919;52.344;14.518;2023-04-19T08:12:42;9.30;1.00
13694;DHT22;6919;52.344;14.518;2023-04-19T08:15:29;9.60;1.00
13694;DHT22;6919;52.344;14.518;2023-04-19T08:18:01;9.80;1.00
13694;DHT22;6919;52.344;14.518;2023-04-19T08:20:30;10.10;1.00
13694;DHT22;6919;52.344;14.518;2023-04-19T08:22:59;10.40;1.00
13694;DHT22;6919;52.344;14.518;2023-04-19T08:25:45;10.30;99.90
13694;DHT22;6919;52.344;14.518;2023-04-19T08:28:13;10.00;99.90
13694;DHT22;6919;52.344;14.518;2023-04-19T08:30:42;9.90;99.90
13694;DHT22;6919;52.344;14.518;2023-04-19T08:33:10;9.90;1.00
13694;DHT22;6919;52.344;14.518;2023-04-19T08:35:39;9.70;1.00
13694;DHT22;6919;52.344;14.518;2023-04-19T08:38:08;9.90;1.00
13694;DHT22;6919;52.344;14.518;2023-04-19T08:40:38;10.30;1.00
13694;DHT22;6919;52.344;14.518;2023-04-19T08:43:20;10.30;99.90
13694;DHT22;6919;52.344;14.518;2023-04-19T08:45:49;10.50;99.90
13694;DHT22;6919;52.344;14.518;2023-04-19T08:48:18;10.60;99.90
13694;DHT22;6919;52.344;14.518;2023-04-19T08:50:47;10.80;99.90
13694;DHT22;6919;52.344;14.518;2023-04-19T08:53:33;10.60;99.90
13694;DHT22;6919;52.344;14.518;2023-04-19T08:56:02;10.20;99.90
13694;DHT22;6919;52.344;14.518;2023-04-19T08:58:44;10.10;99.90
13694;DHT22;6919;52.344;14.518;2023-04-19T09:01:16;10.00;99.90
13694;DHT22;6919;52.344;14.518;2023-04-19T09:04:01;10.10;99.90
13694;DHT22;6919;52.344;14.518;2023-04-19T09:06:51;10.80;99.90
13694;DHT22;6919;52.344;14.518;2023-04-19T09:09:21;11.00;99.90
13694;DHT22;6919;52.344;14.518;2023-04-19T09:12:15;10.90;99.90
13694;DHT22;6919;52.344;14.518;2023-04-19T09:14:46;10.70;99.90
13694;DHT22;6919;52.344;14.518;2023-04-19T09:17:17;10.70;99.90
13694;DHT22;6919;52.344;14.518;2023-04-19T09:19:46;11.00;99.90
13694;DHT22;6919;52.344;14.518;2023-04-19T09:22:16;11.20;99.90
13694;DHT22;6919;52.344;14.518;2023-04-19T09:24:45;10.90;99.90
13694;DHT22;6919;52.344;14.518;2023-04-19T09:27:26;11.30;99.90
13694;DHT22;6919;52.344;14.518;2023-04-19T09:29:59;11.60;99.90
13694;DHT22;6919;52.344;14.518;2023-04-19T09:32:44;11.60;99.90
13694;DHT22;6919;52.344;14.518;2023-04-19T09:35:14;11.50;99.90
13694;DHT22;6919;52.344;14.518;2023-04-19T09:37:57;11.60;99.90
13694;DHT22;6919;52.344;14.518;2023-04-19T09:40:32;11.60;99.90
13694;DHT22;6919;52.344;14.518;2023-04-19T09:43:01;11.50;99.90
13694;DHT22;6919;52.344;14.518;2023-04-19T09:45:51;11.40;99.90
13694;DHT22;6919;52.344;14.518;2023-04-19T09:48:22;11.60;99.90
13694;DHT22;6919;52.344;14.518;2023-04-19T09:50:52;11.70;99.90
13694;DHT22;6919;52.344;14.518;2023-04-19T09:53:30;11.90;99.90
13694;DHT22;6919;52.344;14.518;2023-04-19T09:56:01;11.90;99.90
13694;DHT22;6919;52.344;14.518;2023-04-19T09:58:31;12.00;99.90
13694;DHT22;6919;52.344;14.518;2023-04-19T10:01:17;12.20;99.90
13694;DHT22;6919;52.344;14.518;2023-04-19T10:03:48;12.30;99.90
13694;DHT22;6919;52.344;14.518;2023-04-19T10:06:19;12.50;99.90
13694;DHT22;6919;52.344;14.518;2023-04-19T10:08:52;12.30;99.90
13694;DHT22;6919;52.344;14.518;2023-04-19T10:11:22;12.50;99.90
13694;DHT22;6919;52.344;14.518;2023-04-19T10:13:57;12.40;99.90
13694;DHT22;6919;52.344;14.518;2023-04-19T10:16:31;12.40;99.90
13694;DHT22;6919;52.344;14.518;2023-04-19T10:19:03;12.40;99.90
13694;DHT22;6919;52.344;14.518;2023-04-19T10:21:36;12.20;99.90
13694;DHT22;6919;52.344;14.518;2023-04-19T10:24:07;12.50;99.90
13694;DHT22;6919;52.344;14.518;2023-04-19T10:27:05;12.30;99.90
13694;DHT22;6919;52.344;14.518;2023-04-19T10:29:56;12.30;99.90
13694;DHT22;6919;52.344;14.518;2023-04-19T10:32:36;12.10;99.90
13694;DHT22;6919;52.344;14.518;2023-04-19T10:35:07;12.00;99.90
13694;DHT22;6919;52.344;14.518;2023-04-19T10:37:39;11.70;99.90
13694;DHT22;6919;52.344;14.518;2023-04-19T10:40:09;11.30;99.90
13694;DHT22;6919;52.344;14.518;2023-04-19T10:43:15;11.10;99.90
13694;DHT22;6919;52.344;14.518;2023-04-19T10:45:44;11.00;99.90
13694;DHT22;6919;52.344;14.518;2023-04-19T10:48:37;11.00;99.90
13694;DHT22;6919;52.344;14.518;2023-04-19T10:51:14;11.10;99.90
13694;DHT22;6919;52.344;14.518;2023-04-19T10:53:51;11.20;99.90
13694;DHT22;6919;52.344;14.518;2023-04-19T10:59:31;11.10;99.90
13694;DHT22;6919;52.344;14.518;2023-04-19T11:02:01;11.40;99.90
13694;DHT22;6919;52.344;14.518;2023-04-19T11:07:37;12.00;99.90
13694;DHT22;6919;52.344;14.518;2023-04-19T11:10:08;12.50;99.90
13694;DHT22;6919;52.344;14.518;2023-04-19T11:12:41;12.60;99.90
13694;DHT22;6919;52.344;14.518;2023-04-19T11:15:10;12.30;99.90
13694;DHT22;6919;52.344;14.518;2023-04-19T11:17:39;12.00;99.90
13694;DHT22;6919;52.344;14.518;2023-04-19T11:20:10;11.80;99.90
13694;DHT22;6919;52.344;14.518;2023-04-19T11:22:41;11.70;99.90
13694;DHT22;6919;52.344;14.518;2023-04-19T11:25:12;11.50;99.90
13694;DHT22;6919;52.344;14.518;2023-04-19T11:27:44;11.60;99.90
13694;DHT22;6919;52.344;14.518;2023-04-19T11:30:14;11.20;99.90
13694;DHT22;6919;52.344;14.518;2023-04-19T11:32:46;11.00;99.90
13694;DHT22;6919;52.344;14.518;2023-04-19T11:35:19;10.60;99.90
13694;DHT22;6919;52.344;14.518;2023-04-19T11:37:49;10.30;1.00
13694;DHT22;6919;52.344;14.518;2023-04-19T11:40:20;10.10;1.00
13694;DHT22;6919;52.344;14.518;2023-04-19T11:42:54;9.90;1.00
13694;DHT22;6919;52.344;14.518;2023-04-19T11:45:25;9.80;1.00
13694;DHT22;6919;52.344;14.518;2023-04-19T11:48:00;9.60;1.00
13694;DHT22;6919;52.344;14.518;2023-04-19T11:50:37;9.50;1.00
13694;DHT22;6919;52.344;14.518;2023-04-19T11:53:14;9.50;10.90
13694;DHT22;6919;52.344;14.518;2023-04-19T11:55:46;9.30;99.90
13694;DHT22;6919;52.344;14.518;2023-04-19T11:58:28;9.00;1.00
13694;DHT22;6919;52.344;14.518;2023-04-19T12:01:03;8.80;91.10
13694;DHT22;6919;52.344;14.518;2023-04-19T12:03:34;8.60;99.90
13694;DHT22;6919;52.344;14.518;2023-04-19T12:06:05;8.60;99.90
13694;DHT22;6919;52.344;14.518;2023-04-19T12:08:41;8.50;1.00
13694;DHT22;6919;52.344;14.518;2023-04-19T12:11:10;8.30;1.00
13694;DHT22;6919;52.344;14.518;2023-04-19T12:13:39;8.50;74.00
13694;DHT22;6919;52.344;14.518;2023-04-19T12:16:10;8.40;99.90
13694;DHT22;6919;52.344;14.518;2023-04-19T12:18:47;8.60;99.90
13694;DHT22;6919;52.344;14.518;2023-04-19T12:21:25;8.70;1.00
13694;DHT22;6919;52.344;14.518;2023-04-19T12:23:56;8.60;99.90
13694;DHT22;6919;52.344;14.518;2023-04-19T12:26:26;8.50;99.90
13694;DHT22;6919;52.344;14.518;2023-04-19T12:28:56;8.20;99.90
13694;DHT22;6919;52.344;14.518;2023-04-19T12:31:26;8.10;1.00
13694;DHT22;6919;52.344;14.518;2023-04-19T12:33:54;7.90;1.00
13694;DHT22;6919;52.344;14.518;2023-04-19T12:36:25;7.90;1.00
13694;DHT22;6919;52.344;14.518;2023-04-19T12:38:54;7.90;1.00
13694;DHT22;6919;52.344;14.518;2023-04-19T12:41:22;7.90;1.00
13694;DHT22;6919;52.344;14.518;2023-04-19T12:43:50;7.50;1.00
13694;DHT22;6919;52.344;14.518;2023-04-19T12:46:19;7.50;1.00
13694;DHT22;6919;52.344;14.518;2023-04-19T12:48:48;7.50;1.00
13694;DHT22;6919;52.344;14.518;2023-04-19T12:51:16;7.50;1.00
13694;DHT22;6919;52.344;14.518;2023-04-19T12:53:48;7.40;1.00
13694;DHT22;6919;52.344;14.518;2023-04-19T12:56:17;7.40;1.00
13694;DHT22;6919;52.344;14.518;2023-04-19T12:58:45;7.50;1.00
13694;DHT22;6919;52.344;14.518;2023-04-19T13:01:14;7.40;1.00
13694;DHT22;6919;52.344;14.518;2023-04-19T13:03:43;7.40;1.00
13694;DHT22;6919;52.344;14.518;2023-04-19T13:06:13;7.40;1.00
13694;DHT22;6919;52.344;14.518;2023-04-19T13:08:42;7.30;1.00
13694;DHT22;6919;52.344;14.518;2023-04-19T13:11:15;7.30;1.00
13694;DHT22;6919;52.344;14.518;2023-04-19T13:13:50;7.40;1.00
13694;DHT22;6919;52.344;14.518;2023-04-19T13:16:19;7.40;1.00
13694;DHT22;6919;52.344;14.518;2023-04-19T13:18:48;7.40;1.00
13694;DHT22;6919;52.344;14.518;2023-04-19T13:21:18;7.50;14.30
13694;DHT22;6919;52.344;14.518;2023-04-19T13:23:48;7.60;1.10
13694;DHT22;6919;52.344;14.518;2023-04-19T13:26:18;7.60;1.00
13694;DHT22;6919;52.344;14.518;2023-04-19T13:28:47;7.60;1.00
13694;DHT22;6919;52.344;14.518;2023-04-19T13:31:15;7.70;1.00
13694;DHT22;6919;52.344;14.518;2023-04-19T13:33:44;7.60;18.30
13694;DHT22;6919;52.344;14.518;2023-04-19T13:36:12;7.90;24.20
13694;DHT22;6919;52.344;14.518;2023-04-19T13:38:41;8.00;2.40
13694;DHT22;6919;52.344;14.518;2023-04-19T13:41:09;8.20;1.00
13694;DHT22;6919;52.344;14.518;2023-04-19T13:43:39;8.30;1.00
13694;DHT22;6919;52.344;14.518;2023-04-19T13:46:08;8.40;1.00
13694;DHT22;6919;52.344;14.518;2023-04-19T13:48:36;8.40;1.00
13694;DHT22;6919;52.344;14.518;2023-04-19T13:51:05;8.80;1.00
13694;DHT22;6919;52.344;14.518;2023-04-19T13:53:34;8.60;1.00
13694;DHT22;6919;52.344;14.518;2023-04-19T13:56:03;8.70;1.00
13694;DHT22;6919;52.344;14.518;2023-04-19T13:58:35;8.90;1.00
13694;DHT22;6919;52.344;14.518;2023-04-19T14:01:05;8.80;99.90
13694;DHT22;6919;52.344;14.518;2023-04-19T14:03:33;8.80;98.90
13694;DHT22;6919;52.344;14.518;2023-04-19T14:06:04;8.90;99.90
13694;DHT22;6919;52.344;14.518;2023-04-19T14:08:34;8.70;1.00
13694;DHT22;6919;52.344;14.518;2023-04-19T14:11:05;8.70;25.70
13694;DHT22;6919;52.344;14.518;2023-04-19T14:13:33;8.70;1.00
13694;DHT22;6919;52.344;14.518;2023-04-19T14:16:07;8.50;1.00
13694;DHT22;6919;52.344;14.518;2023-04-19T14:18:35;8.60;99.90
13694;DHT22;6919;52.344;14.518;2023-04-19T14:21:04;8.80;1.00
13694;DHT22;6919;52.344;14.518;2023-04-19T14:23:33;8.40;1.00
13694;DHT22;6919;52.344;14.518;2023-04-19T14:26:02;8.40;99.90
13694;DHT22;6919;52.344;14.518;2023-04-19T14:28:33;8.20;99.90
13694;DHT22;6919;52.344;14.518;2023-04-19T14:31:02;8.20;1.00
13694;DHT22;6919;52.344;14.518;2023-04-19T14:33:32;7.80;50.00
13694;DHT22;6919;52.344;14.518;2023-04-19T14:36:00;8.20;99.90
13694;DHT22;6919;52.344;14.518;2023-04-19T14:38:29;8.10;99.90
13694;DHT22;6919;52.344;14.518;2023-04-19T14:40:58;8.20;30.40
13694;DHT22;6919;52.344;14.518;2023-04-19T14:43:26;8.20;99.90
13694;DHT22;6919;52.344;14.518;2023-04-19T14:45:55;8.10;99.90
13694;DHT22;6919;52.344;14.518;2023-04-19T14:48:23;8.10;1.00
13694;DHT22;6919;52.344;14.518;2023-04-19T14:50:54;8.10;1.00
13694;DHT22;6919;52.344;14.518;2023-04-19T14:53:22;8.00;1.00
13694;DHT22;6919;52.344;14.518;2023-04-19T14:55:51;8.10;1.00
13694;DHT22;6919;52.344;14.518;2023-04-19T14:58:19;8.00;1.00
13694;DHT22;6919;52.344;14.518;2023-04-19T15:00:48;7.60;1.00
13694;DHT22;6919;52.344;14.518;2023-04-19T15:03:17;7.90;1.00
13694;DHT22;6919;52.344;14.518;2023-04-19T15:05:48;7.80;1.00
13694;DHT22;6919;52.344;14.518;2023-04-19T15:08:18;7.70;99.90
13694;DHT22;6919;52.344;14.518;2023-04-19T15:10:56;7.70;1.00
13694;DHT22;6919;52.344;14.518;2023-04-19T15:13:25;7.80;1.00
13694;DHT22;6919;52.344;14.518;2023-04-19T15:15:55;7.70;1.00
13694;DHT22;6919;52.344;14.518;2023-04-19T15:18:23;7.70;1.00
13694;DHT22;6919;52.344;14.518;2023-04-19T15:20:52;7.90;1.00
13694;DHT22;6919;52.344;14.518;2023-04-19T15:23:23;7.90;1.00
13694;DHT22;6919;52.344;14.518;2023-04-19T15:25:52;8.00;1.00
13694;DHT22;6919;52.344;14.518;2023-04-19T15:28:22;7.90;1.00
13694;DHT22;6919;52.344;14.518;2023-04-19T15:30:57;7.90;1.00
13694;DHT22;6919;52.344;14.518;2023-04-19T15:33:27;8.00;1.00
13694;DHT22;6919;52.344;14.518;2023-04-19T15:35:56;7.90;1.00
13694;DHT22;6919;52.344;14.518;2023-04-19T15:38:28;7.80;1.00
13694;DHT22;6919;52.344;14.518;2023-04-19T15:40:58;7.80;1.00
13694;DHT22;6919;52.344;14.518;2023-04-19T15:43:27;7.70;1.00
13694;DHT22;6919;52.344;14.518;2023-04-19T15:45:56;8.00;99.90
13694;DHT22;6919;52.344;14.518;2023-04-19T15:48:24;7.70;99.90
13694;DHT22;6919;52.344;14.518;2023-04-19T15:50:53;7.70;99.90
13694;DHT22;6919;52.344;14.518;2023-04-19T15:53:21;7.60;99.90
13694;DHT22;6919;52.344;14.518;2023-04-19T15:55:51;7.50;99.90
13694;DHT22;6919;52.344;14.518;2023-04-19T15:58:22;7.40;99.90
13694;DHT22;6919;52.344;14.518;2023-04-19T16:00:50;7.40;99.90
13694;DHT22;6919;52.344;14.518;2023-04-19T16:03:19;7.40;99.90
13694;DHT22;6919;52.344;14.518;2023-04-19T16:05:48;7.30;99.90
13694;DHT22;6919;52.344;14.518;2023-04-19T16:08:18;7.20;99.90
13694;DHT22;6919;52.344;14.518;2023-04-19T16:10:47;7.20;99.90
13694;DHT22;6919;52.344;14.518;2023-04-19T16:13:17;7.30;99.90
13694;DHT22;6919;52.344;14.518;2023-04-19T16:15:46;7.20;99.90
13694;DHT22;6919;52.344;14.518;2023-04-19T16:18:14;7.30;99.90
13694;DHT22;6919;52.344;14.518;2023-04-19T16:20:43;7.40;99.90
13694;DHT22;6919;52.344;14.518;2023-04-19T16:23:11;7.20;99.90
13694;DHT22;6919;52.344;14.518;2023-04-19T16:25:40;7.20;99.90
13694;DHT22;6919;52.344;14.518;2023-04-19T16:28:08;7.00;99.90
13694;DHT22;6919;52.344;14.518;2023-04-19T16:30:38;7.00;99.90